Time;durP1;ratioP1;P1;durP2;ratioP2;P2;SDS_P1;SDS_P2;PMS_P1;PMS_P2;Temp;Humidity;BMP_temperature;BMP_pressure;BME280_temperature;BME280_humidity;BME280_pressure;Samples;Min_cycle;Max_cycle;Signal;HPM_P1;HPM_P2
2022/08/07 20:13:24;;;;;;;;;;;;;;;18.03;67.44;101020.19;4907296;29;1354;-96
2022/08/07 20:16:20;;;;;;;;;;;;;;;18.03;67.29;101022.91;4902985;29;697;-95
2022/08/07 20:19:15;;;;;;;;;;;;;;;18.01;67.41;101008.72;4899857;29;694;-94
2022/08/07 20:22:10;;;;;;;;;;;;;;;18.02;67.55;101018.53;4903511;29;705;-96
2022/08/07 20:25:06;;;;;;;;;;;;;;;18.01;67.29;101021.53;4902792;29;882;-96
2022/08/07 20:27:39;;;;;;;;;;;;;;;18.01;67.33;101018.78;4899434;29;1628;-96
2022/08/07 20:30:05;;;;;;;;;;;;;;;18.01;67.36;101018.78;4882973;29;1915;-95
2022/08/07 20:32:33;;;;;;;;;;;;;;;18.00;67.31;101011.69;4884133;29;1587;-95
2022/08/07 20:35:00;;;;;;;;;;;;;;;18.00;67.31;101019.84;4885309;29;1655;-95
2022/08/07 20:37:27;;;;;;;;;;;;;;;17.99;67.16;101016.31;4883861;29;1289;-96
2022/08/07 20:39:56;;;;;;;;;;;;;;;18.00;67.24;101014.41;4910665;29;995;-95
2022/08/07 20:42:25;;;;;;;;;;;;;;;17.98;67.33;101020.13;4918809;29;1194;-93
2022/08/07 20:45:02;;;;;;;;;;;;;;;17.99;67.23;101024.50;4902371;29;1386;-95
2022/08/07 20:50:31;;;;;;;;;;;;;;;17.98;67.28;101031.03;4901918;29;1962;-95
2022/08/07 20:53:08;;;;;;;;;;;;;;;17.97;67.37;101023.09;4894335;29;1429;-95
2022/08/07 20:55:35;;;;;;;;;;;;;;;17.97;67.09;101028.56;4900990;29;1380;-94
2022/08/07 20:58:01;;;;;;;;;;;;;;;17.96;67.21;101019.56;4902898;29;1305;-94
2022/08/07 21:00:28;;;;;;;;;;;;;;;17.96;67.17;101013.28;4902158;29;1283;-94
2022/08/07 21:03:00;;;;;;;;;;;;;;;17.96;67.18;101016.00;4902639;29;1263;-96
2022/08/07 21:05:29;;;;;;;;;;;;;;;17.95;67.23;101009.75;4904007;29;1331;-93
2022/08/07 21:07:56;;;;;;;;;;;;;;;17.95;67.17;101008.94;4902201;29;1455;-93
2022/08/07 21:10:23;;;;;;;;;;;;;;;17.94;67.13;101010.81;4902954;29;1921;-94
2022/08/07 21:12:52;;;;;;;;;;;;;;;17.93;67.19;101012.72;4887693;29;1560;-95
2022/08/07 21:15:31;;;;;;;;;;;;;;;17.92;67.04;101019.25;4884454;29;1276;-95
2022/08/07 21:17:59;;;;;;;;;;;;;;;17.92;67.14;101019.25;4898718;29;1156;-96
2022/08/07 21:20:26;;;;;;;;;;;;;;;17.93;67.12;101022.81;4881356;29;1490;-95
2022/08/07 21:23:01;;;;;;;;;;;;;;;17.92;67.12;101029.34;4884804;29;1444;-96
2022/08/07 21:25:29;;;;;;;;;;;;;;;17.92;67.06;101027.44;4882496;29;1444;-95
2022/08/07 21:27:56;;;;;;;;;;;;;;;17.92;67.12;101026.63;4882381;29;1244;-95
2022/08/07 21:30:23;;;;;;;;;;;;;;;17.90;67.05;101029.59;4883011;29;1879;-95
2022/08/07 21:32:52;;;;;;;;;;;;;;;17.90;67.07;101031.50;4885267;29;1807;-95
2022/08/07 21:35:30;;;;;;;;;;;;;;;17.91;66.95;101027.69;4887300;29;1566;-95
2022/08/07 21:38:05;;;;;;;;;;;;;;;17.89;67.10;101030.66;4899652;29;968;-94
2022/08/07 21:40:40;;;;;;;;;;;;;;;17.89;66.95;101036.13;4900467;29;1317;-93
2022/08/07 21:43:12;;;;;;;;;;;;;;;17.88;67.15;101030.91;4887785;29;1363;-95
2022/08/07 21:45:42;;;;;;;;;;;;;;;17.87;66.95;101029.28;4883937;29;1306;-94
2022/08/07 21:48:12;;;;;;;;;;;;;;;17.86;67.00;101023.00;4883854;29;1347;-93
2022/08/07 21:50:39;;;;;;;;;;;;;;;17.86;67.14;101023.00;4886082;29;1960;-95
2022/08/07 21:53:08;;;;;;;;;;;;;;;17.86;67.15;101025.72;4886848;29;1269;-95
2022/08/07 21:55:34;;;;;;;;;;;;;;;17.86;66.88;101025.72;4884328;29;1202;-96
2022/08/07 21:58:02;;;;;;;;;;;;;;;17.85;66.94;101024.09;4883303;29;1064;-94
2022/08/07 22:03:10;;;;;;;;;;;;;;;17.84;66.96;101025.16;4883685;29;1300;-95
2022/08/07 22:05:38;;;;;;;;;;;;;;;17.84;66.98;101022.44;4883716;29;1056;-95
